createdAt,value
2023-03-12T00:05:41.812Z,2.60
2023-03-12T00:11:43.920Z,6.97
2023-03-12T00:17:45.847Z,4.70
2023-03-12T00:23:48.971Z,4.30
2023-03-12T00:29:51.012Z,3.17
2023-03-12T00:35:54.202Z,2.43
2023-03-12T00:41:56.111Z,4.57
2023-03-12T00:47:58.021Z,4.93
2023-03-12T00:54:00.063Z,4.97
2023-03-12T01:00:02.066Z,3.03
2023-03-12T01:06:05.410Z,2.60
2023-03-12T01:12:07.777Z,2.43
2023-03-12T01:18:09.717Z,2.70
2023-03-12T01:24:11.656Z,6.50
2023-03-12T01:30:13.904Z,5.10
2023-03-12T01:36:25.323Z,2.63
2023-03-12T01:42:27.367Z,4.17
2023-03-12T01:49:16.010Z,8.93
2023-03-12T01:55:18.297Z,7.37
2023-03-12T02:01:22.097Z,5.10
2023-03-12T02:07:24.028Z,4.00
2023-03-12T02:13:25.949Z,8.13
2023-03-12T02:19:57.515Z,4.10
2023-03-12T02:26:01.850Z,8.10
2023-03-12T02:32:05.941Z,9.80
2023-03-12T02:38:43.385Z,3.40
2023-03-12T02:44:45.270Z,3.53
2023-03-12T02:50:47.307Z,3.10
2023-03-12T02:56:49.616Z,6.43
2023-03-12T03:02:51.523Z,10.40
2023-03-12T03:08:53.455Z,6.37
2023-03-12T03:14:55.396Z,6.07
2023-03-12T03:21:09.874Z,3.30
2023-03-12T03:27:12.952Z,7.70
2023-03-12T03:33:14.972Z,3.37
2023-03-12T03:39:16.901Z,10.00
2023-03-12T03:45:19.733Z,5.40
2023-03-12T03:51:21.823Z,13.53
2023-03-12T03:57:23.884Z,9.00
2023-03-12T04:03:25.823Z,5.00
2023-03-12T04:09:27.768Z,12.90
2023-03-12T04:15:29.728Z,3.67
2023-03-12T04:21:31.729Z,10.03
2023-03-12T04:27:35.018Z,4.60
2023-03-12T04:33:39.349Z,2.37
2023-03-12T04:39:42.524Z,3.87
2023-03-12T04:45:44.413Z,7.93
2023-03-12T04:51:46.482Z,3.30
2023-03-12T04:57:48.418Z,3.27
2023-03-12T05:03:50.377Z,4.90
2023-03-12T05:09:52.345Z,5.50
2023-03-12T05:15:54.421Z,6.80
2023-03-12T05:21:56.342Z,4.40
2023-03-12T05:27:58.276Z,2.53
2023-03-12T05:34:00.602Z,2.50
2023-03-12T05:40:02.559Z,7.73
2023-03-12T05:46:05.513Z,4.47
2023-03-12T05:52:07.730Z,2.50
2023-03-12T05:58:09.998Z,4.47
2023-03-12T06:04:11.899Z,2.90
2023-03-12T06:10:13.807Z,3.93
2023-03-12T06:16:25.935Z,3.57
2023-03-12T06:22:28.954Z,4.30
2023-03-12T06:28:31.238Z,5.77
2023-03-12T06:34:33.152Z,3.90
2023-03-12T06:40:35.046Z,3.90
2023-03-12T06:46:37.158Z,2.63
2023-03-12T06:52:40.519Z,2.00
2023-03-12T06:58:42.744Z,3.93
2023-03-12T07:04:44.694Z,2.67
2023-03-12T07:10:47.010Z,5.60
2023-03-12T07:16:48.978Z,2.17
2023-03-12T07:22:50.986Z,3.10
2023-03-12T07:28:52.909Z,3.77
2023-03-12T07:34:54.843Z,4.17
2023-03-12T07:40:58.927Z,2.60
2023-03-12T07:47:12.738Z,2.07
2023-03-12T07:53:22.729Z,2.23
2023-03-12T07:59:26.111Z,4.47
2023-03-12T08:05:28.099Z,5.17
2023-03-12T08:11:30.920Z,3.93
2023-03-12T08:17:32.869Z,3.47
2023-03-12T08:23:35.651Z,4.30
2023-03-12T08:29:37.744Z,5.87
2023-03-12T08:35:39.738Z,7.17
2023-03-12T08:41:41.788Z,4.90
2023-03-12T08:47:44.525Z,6.87
2023-03-12T08:53:46.443Z,5.50
2023-03-12T08:59:48.608Z,4.17
2023-03-12T09:05:51.711Z,5.23
2023-03-12T09:11:54.410Z,4.37
2023-03-12T09:17:56.959Z,4.43
2023-03-12T09:23:59.004Z,7.50
2023-03-12T09:30:01.474Z,4.47
2023-03-12T09:36:04.029Z,3.53
2023-03-12T09:42:14.210Z,7.80
2023-03-12T09:48:35.292Z,2.23
2023-03-12T09:54:50.315Z,2.73
2023-03-12T10:01:01.974Z,4.67
2023-03-12T10:07:25.328Z,3.40
2023-03-12T10:13:43.879Z,4.20
2023-03-12T10:20:16.349Z,5.17
2023-03-12T10:26:43.206Z,3.10
2023-03-12T10:32:55.695Z,4.33
2023-03-12T10:38:57.624Z,7.30
2023-03-12T10:45:10.293Z,3.17
2023-03-12T10:51:13.322Z,3.73
2023-03-12T10:57:16.832Z,4.70
2023-03-12T11:03:22.099Z,4.83
2023-03-12T11:09:23.958Z,10.30
2023-03-12T11:15:42.175Z,6.70
2023-03-12T11:21:58.698Z,3.77
2023-03-12T11:28:02.901Z,5.70
2023-03-12T11:34:21.139Z,10.13
2023-03-12T11:40:41.503Z,5.87
2023-03-12T11:47:16.593Z,8.00
2023-03-12T11:53:43.277Z,9.07
2023-03-12T11:59:58.501Z,4.33
2023-03-12T12:06:40.423Z,2.50
2023-03-12T12:12:59.136Z,6.47
2023-03-12T12:19:15.690Z,6.53
2023-03-12T12:25:54.174Z,3.30
2023-03-12T12:31:59.051Z,5.70
2023-03-12T12:38:17.255Z,6.27
2023-03-12T12:44:33.823Z,5.37
2023-03-12T12:50:39.883Z,9.57
2023-03-12T12:57:21.481Z,8.10
2023-03-12T13:03:26.393Z,15.97
2023-03-12T13:09:58.398Z,35.23
2023-03-12T13:16:39.498Z,12.00
2023-03-12T13:23:25.439Z,7.03
2023-03-12T13:29:31.200Z,5.13
2023-03-12T13:35:38.787Z,9.40
2023-03-12T13:41:50.801Z,9.20
2023-03-12T13:47:58.711Z,5.40
2023-03-12T13:54:02.860Z,10.53
2023-03-12T14:00:27.501Z,6.37
2023-03-12T14:06:30.531Z,6.73
2023-03-12T14:12:43.139Z,14.07
2023-03-12T14:18:47.018Z,11.37
2023-03-12T14:24:58.534Z,11.17
2023-03-12T14:31:06.839Z,5.73
2023-03-12T14:37:22.483Z,8.20
2023-03-12T14:43:27.232Z,9.00
2023-03-12T14:49:31.401Z,6.20
2023-03-12T14:55:33.346Z,6.03
2023-03-12T15:01:39.664Z,5.53
2023-03-12T15:07:41.679Z,5.30
2023-03-12T15:13:43.726Z,10.03
2023-03-12T15:19:47.795Z,5.27
2023-03-12T15:26:20.326Z,6.20
2023-03-12T15:32:25.004Z,7.70
2023-03-12T15:38:27.371Z,5.80
2023-03-12T15:44:43.929Z,6.70
2023-03-12T15:50:46.024Z,7.00
2023-03-12T15:56:47.916Z,5.70
2023-03-12T16:02:56.747Z,5.73
2023-03-12T16:09:03.402Z,10.10
2023-03-12T16:15:06.161Z,6.10
2023-03-12T16:21:08.653Z,5.60
2023-03-12T16:27:23.710Z,7.50
2023-03-12T16:33:33.824Z,5.47
2023-03-12T16:39:35.702Z,7.20
2023-03-12T16:45:40.438Z,6.77
2023-03-12T16:51:42.417Z,10.80
2023-03-12T16:57:55.551Z,6.10
2023-03-12T17:03:57.751Z,8.90
2023-03-12T17:09:59.758Z,7.00
2023-03-12T17:16:01.684Z,8.17
2023-03-12T17:22:04.314Z,7.70
2023-03-12T17:28:07.418Z,7.13
2023-03-12T17:34:09.585Z,8.43
2023-03-12T17:40:12.316Z,6.80
2023-03-12T17:46:14.291Z,5.63
2023-03-12T17:52:16.270Z,6.17
2023-03-12T17:58:18.147Z,7.17
2023-03-12T18:04:20.083Z,6.43
2023-03-12T18:10:22.525Z,11.93
2023-03-12T18:16:24.465Z,6.60
2023-03-12T18:22:26.381Z,6.37
2023-03-12T18:28:28.664Z,9.30
2023-03-12T18:34:30.574Z,8.17
2023-03-12T18:40:33.154Z,7.00
2023-03-12T18:46:35.131Z,8.77
2023-03-12T18:52:37.387Z,6.70
2023-03-12T18:58:39.391Z,14.10
2023-03-12T19:04:41.535Z,12.93
2023-03-12T19:10:44.315Z,16.20
2023-03-12T19:16:46.189Z,14.30
2023-03-12T19:22:48.139Z,14.67
2023-03-12T19:28:50.128Z,11.93
2023-03-12T19:34:52.423Z,14.70
2023-03-12T19:40:56.964Z,18.13
2023-03-12T19:46:58.862Z,17.40
2023-03-12T19:53:00.905Z,17.40
2023-03-12T19:59:02.831Z,12.40
2023-03-12T20:05:07.442Z,21.93
2023-03-12T20:11:10.957Z,17.30
2023-03-12T20:17:13.256Z,16.13
2023-03-12T20:23:15.147Z,13.43
2023-03-12T20:29:17.071Z,13.30
2023-03-12T20:35:18.969Z,11.67
2023-03-12T20:41:20.941Z,16.50
2023-03-12T20:47:23.265Z,17.07
2023-03-12T20:53:25.184Z,13.03
2023-03-12T20:59:27.129Z,14.83
2023-03-12T21:05:29.051Z,9.83
2023-03-12T21:11:31.373Z,13.50
2023-03-12T21:17:38.919Z,26.47
2023-03-12T21:23:40.850Z,12.03
2023-03-12T21:29:42.786Z,15.70
2023-03-12T21:35:48.073Z,13.60
2023-03-12T21:41:50.003Z,15.10
2023-03-12T21:47:51.965Z,21.63
2023-03-12T21:53:55.889Z,9.57
2023-03-12T21:59:57.811Z,16.03
2023-03-12T22:06:00.378Z,15.20
2023-03-12T22:12:03.357Z,20.27
2023-03-12T22:18:05.300Z,14.17
2023-03-12T22:24:07.641Z,9.30
2023-03-12T22:30:12.283Z,18.47
2023-03-12T22:36:16.444Z,16.07
2023-03-12T22:42:18.455Z,23.53
2023-03-12T22:48:20.520Z,20.60
2023-03-12T22:54:22.521Z,14.40
2023-03-12T23:00:26.539Z,17.10
2023-03-12T23:06:30.112Z,20.93
2023-03-12T23:12:32.616Z,15.60
2023-03-12T23:18:35.382Z,19.03
2023-03-12T23:24:37.349Z,14.83
2023-03-12T23:30:39.307Z,12.27
2023-03-12T23:36:42.467Z,11.07
2023-03-12T23:42:44.838Z,22.93
2023-03-12T23:48:46.999Z,19.07
2023-03-12T23:54:49.002Z,17.27
